Time;durP1;ratioP1;P1;durP2;ratioP2;P2;SDS_P1;SDS_P2;PMS_P1;PMS_P2;Temp;Humidity;BMP_temperature;BMP_pressure;BME280_temperature;BME280_humidity;BME280_pressure;Samples;Min_cycle;Max_cycle;Signal;HPM_P1;HPM_P2
2023/09/30 00:01:58;;;;;;;11.82;3.75;;;16.70;99.90;;;;;;5004488;28;20049;-76
2023/09/30 00:04:24;;;;;;;10.45;3.88;;;16.70;99.90;;;;;;4999544;28;20046;-73
2023/09/30 00:06:50;;;;;;;14.90;3.70;;;16.80;99.90;;;;;;5024543;28;20040;-73
2023/09/30 00:09:15;;;;;;;11.18;3.63;;;16.70;99.90;;;;;;4995936;28;20058;-74
2023/09/30 00:11:41;;;;;;;12.98;3.88;;;16.80;99.90;;;;;;4977403;28;20041;-75
2023/09/30 00:14:07;;;;;;;11.50;3.55;;;16.80;99.90;;;;;;5041767;28;20680;-73
2023/09/30 00:16:33;;;;;;;13.60;3.83;;;16.80;99.90;;;;;;5008252;28;20045;-74
2023/09/30 00:18:58;;;;;;;12.55;3.38;;;16.80;99.90;;;;;;4991756;28;20042;-76
2023/09/30 00:21:24;;;;;;;15.88;4.00;;;16.80;99.90;;;;;;5021470;28;20390;-74
2023/09/30 00:23:50;;;;;;;15.27;4.07;;;16.80;99.90;;;;;;5004179;28;20168;-73
2023/09/30 00:26:16;;;;;;;9.23;3.40;;;16.90;99.90;;;;;;5009335;28;20112;-77
2023/09/30 00:28:42;;;;;;;10.65;3.83;;;16.90;99.90;;;;;;5009178;28;20033;-75
2023/09/30 00:31:10;;;;;;;10.57;4.25;;;16.80;99.90;;;;;;4993113;28;20048;-74
2023/09/30 00:33:37;;;;;;;8.80;3.70;;;16.90;99.90;;;;;;5000156;28;20109;-76
2023/09/30 00:36:08;;;;;;;14.43;4.03;;;16.90;99.90;;;;;;5037647;28;20069;-74
2023/09/30 00:38:34;;;;;;;12.30;3.90;;;17.00;99.90;;;;;;5004034;28;20046;-74
2023/09/30 00:41:00;;;;;;;13.63;4.47;;;17.00;99.90;;;;;;5009700;28;20033;-73
2023/09/30 00:43:26;;;;;;;8.45;3.40;;;17.10;99.90;;;;;;5010298;28;20071;-77
2023/09/30 00:46:01;;;;;;;11.55;4.07;;;17.00;99.90;;;;;;5039506;28;20041;-76
2023/09/30 00:48:27;;;;;;;15.57;5.22;;;17.10;99.90;;;;;;5010876;28;20045;-78
2023/09/30 00:50:53;;;;;;;12.98;4.10;;;17.00;99.90;;;;;;4996506;28;20041;-76
2023/09/30 00:53:19;;;;;;;15.25;5.07;;;17.20;99.90;;;;;;5008661;28;20358;-75
2023/09/30 00:55:44;;;;;;;16.90;4.95;;;17.20;99.90;;;;;;4985974;28;20488;-76
2023/09/30 00:58:10;;;;;;;8.90;3.97;;;17.30;99.90;;;;;;5010054;28;20041;-74
2023/09/30 01:00:37;;;;;;;14.40;4.00;;;17.30;99.90;;;;;;5010186;28;20390;-73
2023/09/30 01:03:03;;;;;;;15.07;4.32;;;17.20;99.90;;;;;;5010859;28;20397;-75
2023/09/30 01:05:30;;;;;;;11.63;3.80;;;17.20;99.90;;;;;;5008285;28;20049;-71
2023/09/30 01:07:56;;;;;;;9.77;3.63;;;17.10;99.90;;;;;;5008405;28;20405;-74
2023/09/30 01:10:22;;;;;;;10.65;3.50;;;17.00;99.90;;;;;;5007686;28;20054;-75
2023/09/30 01:12:47;;;;;;;14.98;3.65;;;17.00;99.90;;;;;;5010104;28;20029;-75
2023/09/30 01:15:13;;;;;;;11.38;3.65;;;17.00;99.90;;;;;;5009865;28;20139;-74
2023/09/30 01:17:39;;;;;;;8.90;2.97;;;16.90;99.90;;;;;;5010245;28;20088;-73
2023/09/30 01:20:06;;;;;;;7.90;3.35;;;16.90;99.90;;;;;;4986930;28;20042;-75
2023/09/30 01:22:33;;;;;;;16.13;4.63;;;16.90;99.90;;;;;;5008571;28;20383;-75
2023/09/30 01:24:58;;;;;;;12.27;3.75;;;16.90;99.90;;;;;;5000965;28;20048;-76
2023/09/30 01:27:25;;;;;;;13.73;3.85;;;17.00;99.90;;;;;;5004122;28;20046;-78
2023/09/30 01:29:51;;;;;;;12.48;3.90;;;17.00;99.90;;;;;;4991992;28;20073;-74
2023/09/30 01:32:16;;;;;;;10.23;3.58;;;16.90;99.90;;;;;;4990896;28;20073;-75
2023/09/30 01:34:42;;;;;;;10.13;3.72;;;16.90;99.90;;;;;;5002439;28;20108;-74
2023/09/30 01:37:08;;;;;;;9.10;3.95;;;16.90;99.90;;;;;;5008800;28;20383;-75
2023/09/30 01:39:33;;;;;;;13.45;3.90;;;16.80;99.90;;;;;;5008240;28;20044;-77
2023/09/30 01:41:59;;;;;;;10.85;3.83;;;16.80;99.90;;;;;;5029182;28;20095;-74
2023/09/30 01:44:25;;;;;;;14.65;3.63;;;16.90;99.90;;;;;;5046751;28;20042;-76
2023/09/30 01:46:51;;;;;;;13.25;3.65;;;16.80;99.90;;;;;;5025688;28;20042;-72
2023/09/30 01:49:18;;;;;;;9.40;3.45;;;16.90;99.90;;;;;;5022402;28;20081;-75
2023/09/30 01:51:44;;;;;;;11.40;3.80;;;16.90;99.90;;;;;;5027872;28;20041;-75
2023/09/30 01:54:10;;;;;;;11.90;4.10;;;17.10;99.90;;;;;;4997425;28;20111;-76
2023/09/30 01:56:36;;;;;;;9.45;3.97;;;17.00;99.90;;;;;;5008753;28;20143;-74
2023/09/30 01:59:02;;;;;;;15.90;3.90;;;17.10;99.90;;;;;;5011571;28;20045;-74
2023/09/30 02:01:27;;;;;;;12.13;4.10;;;17.10;99.90;;;;;;5008775;28;20050;-73
2023/09/30 02:03:53;;;;;;;13.30;4.22;;;17.00;99.90;;;;;;5002471;28;20041;-73
2023/09/30 02:06:19;;;;;;;8.30;3.20;;;17.10;99.90;;;;;;5025114;28;20046;-76
2023/09/30 02:08:45;;;;;;;10.07;4.07;;;17.00;99.90;;;;;;5012133;28;20469;-75
2023/09/30 02:11:13;;;;;;;11.55;4.10;;;17.20;99.90;;;;;;5011904;28;20497;-72
2023/09/30 02:13:39;;;;;;;13.57;4.70;;;17.10;99.90;;;;;;5030961;28;20060;-72
2023/09/30 02:16:05;;;;;;;12.60;3.65;;;17.10;99.90;;;;;;5012484;28;20121;-73
2023/09/30 02:18:33;;;;;;;13.18;4.00;;;17.10;99.90;;;;;;5011584;28;20124;-75
2023/09/30 02:20:59;;;;;;;13.75;3.95;;;17.00;99.90;;;;;;5010733;28;20120;-75
2023/09/30 02:23:25;;;;;;;9.60;4.20;;;17.00;99.90;;;;;;5011914;28;20080;-73
2023/09/30 02:25:51;;;;;;;10.95;3.72;;;17.10;99.90;;;;;;5009376;28;20172;-72
2023/09/30 02:28:17;;;;;;;13.77;4.40;;;17.20;99.90;;;;;;5007200;28;20405;-74
2023/09/30 02:30:42;;;;;;;10.10;3.90;;;17.10;99.90;;;;;;5023630;28;20029;-75
2023/09/30 02:33:08;;;;;;;9.80;3.70;;;17.20;99.90;;;;;;5001022;28;20073;-77
2023/09/30 02:35:33;;;;;;;9.68;4.10;;;17.20;99.90;;;;;;5012084;28;20037;-75
2023/09/30 02:38:00;;;;;;;10.80;3.60;;;17.10;99.90;;;;;;5008840;28;20478;-77
2023/09/30 02:40:26;;;;;;;13.80;4.18;;;17.20;99.90;;;;;;5022848;28;20128;-75
2023/09/30 02:42:52;;;;;;;17.23;5.15;;;17.10;99.90;;;;;;5011944;28;20132;-75
2023/09/30 02:45:17;;;;;;;10.90;4.45;;;17.30;99.90;;;;;;5044783;28;20425;-76
2023/09/30 02:47:43;;;;;;;9.13;3.88;;;17.20;99.90;;;;;;5033750;28;20043;-78
2023/09/30 02:50:13;;;;;;;8.95;3.65;;;17.30;99.90;;;;;;5010671;28;20045;-73
2023/09/30 02:52:40;;;;;;;15.98;3.83;;;17.20;99.90;;;;;;5005651;28;20107;-75
2023/09/30 02:55:10;;;;;;;15.25;4.18;;;17.20;99.90;;;;;;4991462;28;20040;-75
2023/09/30 02:57:36;;;;;;;13.07;4.50;;;17.40;99.90;;;;;;4997834;28;20115;-74
2023/09/30 03:02:48;;;;;;;9.40;3.72;;;17.50;99.90;;;;;;5023993;28;20060;-76
2023/09/30 03:05:15;;;;;;;10.48;3.38;;;17.40;99.90;;;;;;4988316;28;20049;-75
2023/09/30 03:07:41;;;;;;;10.68;3.42;;;17.30;99.90;;;;;;5030282;28;20053;-74
2023/09/30 03:10:08;;;;;;;11.23;3.67;;;17.40;99.90;;;;;;4991539;28;20433;-72
2023/09/30 03:12:35;;;;;;;11.25;3.70;;;17.40;99.90;;;;;;5010857;28;20363;-73
2023/09/30 03:15:04;;;;;;;9.10;3.28;;;17.50;99.90;;;;;;5028086;28;20025;-77
2023/09/30 03:17:33;;;;;;;13.23;4.00;;;17.40;99.90;;;;;;5018802;28;20081;-75
2023/09/30 03:20:00;;;;;;;11.85;3.75;;;17.50;99.90;;;;;;4994549;28;20033;-74
2023/09/30 03:22:27;;;;;;;11.20;4.15;;;17.60;99.90;;;;;;5008981;28;20385;-73
2023/09/30 03:24:54;;;;;;;14.55;3.65;;;17.60;99.90;;;;;;5010785;28;20363;-76
2023/09/30 03:27:20;;;;;;;10.88;3.63;;;17.60;99.90;;;;;;5028985;28;20042;-73
2023/09/30 03:29:46;;;;;;;11.25;3.90;;;17.70;99.90;;;;;;5028817;28;20040;-76
2023/09/30 03:32:11;;;;;;;9.23;3.65;;;17.70;99.90;;;;;;5009266;28;20554;-74
2023/09/30 03:34:37;;;;;;;10.38;3.67;;;17.60;99.90;;;;;;5009935;28;20045;-73
2023/09/30 03:37:06;;;;;;;8.35;3.30;;;17.50;99.90;;;;;;4975664;28;20041;-73
2023/09/30 03:39:32;;;;;;;12.10;3.60;;;17.40;99.90;;;;;;5028028;28;20382;-72
2023/09/30 03:41:59;;;;;;;13.05;3.65;;;17.30;99.90;;;;;;5006557;28;20077;-75
2023/09/30 03:44:25;;;;;;;8.60;3.17;;;17.00;99.90;;;;;;4992782;28;20061;-75
2023/09/30 03:46:52;;;;;;;6.93;3.10;;;17.00;99.90;;;;;;5011021;28;20046;-73
2023/09/30 03:49:19;;;;;;;11.00;3.95;;;17.00;99.90;;;;;;5009207;28;20068;-74
2023/09/30 03:51:50;;;;;;;9.80;3.85;;;16.80;99.90;;;;;;5010734;28;20393;-76
2023/09/30 03:54:17;;;;;;;11.77;3.53;;;16.90;99.90;;;;;;5010570;28;20045;-73
2023/09/30 03:56:45;;;;;;;6.95;3.00;;;16.70;99.90;;;;;;4997332;28;20885;-77
2023/09/30 03:59:11;;;;;;;8.75;3.70;;;16.70;99.90;;;;;;4976504;28;20044;-75
2023/09/30 04:01:39;;;;;;;10.63;3.35;;;16.60;99.90;;;;;;5012209;28;20501;-77
2023/09/30 04:04:07;;;;;;;10.02;3.13;;;16.40;99.90;;;;;;5031217;28;20045;-76
2023/09/30 04:06:32;;;;;;;5.03;2.58;;;16.40;99.90;;;;;;5021864;28;20164;-78
2023/09/30 04:08:59;;;;;;;8.93;3.33;;;16.30;99.90;;;;;;5004128;28;20678;-74
2023/09/30 04:11:25;;;;;;;8.93;3.60;;;16.20;99.90;;;;;;5010164;28;20045;-75
2023/09/30 04:13:50;;;;;;;8.88;2.88;;;16.10;99.90;;;;;;5006866;28;20076;-77
2023/09/30 04:16:18;;;;;;;11.18;3.10;;;16.20;99.90;;;;;;4994087;28;20539;-76
2023/09/30 04:18:44;;;;;;;12.45;4.07;;;16.20;99.90;;;;;;5038923;28;20121;-75
2023/09/30 04:21:11;;;;;;;14.75;4.03;;;16.20;99.90;;;;;;5026534;28;20138;-75
2023/09/30 04:23:37;;;;;;;8.73;3.78;;;16.20;99.90;;;;;;5004104;28;20143;-74
2023/09/30 04:26:03;;;;;;;8.55;3.08;;;16.30;99.90;;;;;;4990866;28;20155;-75
2023/09/30 04:28:29;;;;;;;14.82;4.35;;;16.20;99.90;;;;;;5001205;28;20121;-75
2023/09/30 04:30:55;;;;;;;14.25;4.30;;;16.20;99.90;;;;;;5005453;28;20116;-75
2023/09/30 04:33:24;;;;;;;9.93;3.95;;;16.30;99.90;;;;;;5003063;28;20066;-74
2023/09/30 04:35:50;;;;;;;14.85;4.65;;;16.30;99.90;;;;;;4992170;28;20103;-72
2023/09/30 04:38:15;;;;;;;13.50;4.07;;;16.40;99.90;;;;;;5014575;28;20045;-74
2023/09/30 04:40:43;;;;;;;16.27;5.07;;;16.30;99.90;;;;;;4977586;28;20045;-77
2023/09/30 04:43:09;;;;;;;14.57;4.57;;;16.40;99.90;;;;;;5008325;28;20127;-72
2023/09/30 04:45:34;;;;;;;10.38;4.10;;;16.30;99.90;;;;;;5006239;28;20037;-77
2023/09/30 04:48:02;;;;;;;11.95;4.57;;;16.40;99.90;;;;;;5020426;28;20102;-73
2023/09/30 04:50:30;;;;;;;9.75;4.38;;;16.20;99.90;;;;;;4992815;28;20152;-73
2023/09/30 04:52:57;;;;;;;10.57;4.32;;;16.30;99.90;;;;;;5008779;28;20390;-77
2023/09/30 04:55:23;;;;;;;13.15;4.75;;;16.30;99.90;;;;;;5005928;28;20068;-75
2023/09/30 04:57:49;;;;;;;9.90;4.25;;;16.10;99.90;;;;;;5009284;28;20033;-77
2023/09/30 05:00:17;;;;;;;13.13;4.97;;;16.10;99.90;;;;;;5008167;28;20103;-75
2023/09/30 05:02:46;;;;;;;11.32;4.72;;;16.10;99.90;;;;;;5044024;28;20121;-74
2023/09/30 05:05:12;;;;;;;13.90;5.05;;;16.10;99.90;;;;;;5042240;28;20072;-75
2023/09/30 05:07:37;;;;;;;14.18;5.22;;;16.10;99.90;;;;;;4990522;28;20491;-74
2023/09/30 05:10:10;;;;;;;10.38;4.20;;;16.10;99.90;;;;;;5001991;28;20046;-73
2023/09/30 05:12:36;;;;;;;11.73;4.63;;;15.90;99.90;;;;;;5008131;28;20077;-76
2023/09/30 05:15:02;;;;;;;8.35;4.30;;;15.90;99.90;;;;;;5026443;28;20080;-72
2023/09/30 05:17:28;;;;;;;15.68;5.80;;;15.90;99.90;;;;;;5023539;28;20049;-72
2023/09/30 05:19:59;;;;;;;10.75;4.75;;;15.90;99.90;;;;;;5013954;28;20073;-76
2023/09/30 05:22:24;;;;;;;9.90;4.57;;;16.00;99.90;;;;;;5039678;28;20045;-76
2023/09/30 05:24:54;;;;;;;14.65;4.50;;;16.00;99.90;;;;;;5005835;28;20676;-72
2023/09/30 05:27:19;;;;;;;13.07;5.07;;;15.80;99.90;;;;;;4978507;28;20488;-76
2023/09/30 05:29:45;;;;;;;8.77;4.32;;;15.80;99.90;;;;;;5010411;28;20065;-78
2023/09/30 05:32:12;;;;;;;13.20;5.00;;;15.70;99.90;;;;;;5035009;28;20034;-73
2023/09/30 05:34:39;;;;;;;12.70;5.15;;;15.60;99.90;;;;;;5021902;28;20046;-75
2023/09/30 05:37:05;;;;;;;15.20;5.25;;;15.70;99.90;;;;;;5037445;28;20044;-75
2023/09/30 05:39:31;;;;;;;12.05;5.70;;;15.60;99.90;;;;;;5001841;28;20041;-72
2023/09/30 05:41:57;;;;;;;19.35;5.93;;;15.60;99.90;;;;;;5030095;28;20045;-75
2023/09/30 05:44:23;;;;;;;12.77;5.30;;;15.70;99.90;;;;;;5009784;28;20156;-74
2023/09/30 05:46:50;;;;;;;14.50;4.78;;;15.60;99.90;;;;;;4995182;28;20220;-75
2023/09/30 05:49:16;;;;;;;11.32;5.45;;;15.60;99.90;;;;;;4995304;28;20033;-75
2023/09/30 05:51:42;;;;;;;15.02;6.63;;;15.70;99.90;;;;;;5006697;28;20084;-73
2023/09/30 05:54:11;;;;;;;11.13;5.97;;;15.60;99.90;;;;;;5025539;28;20041;-75
2023/09/30 05:56:37;;;;;;;11.68;5.82;;;15.70;99.90;;;;;;5036586;28;20041;-77
2023/09/30 05:59:04;;;;;;;18.75;6.47;;;15.60;99.90;;;;;;5012188;28;20442;-77
2023/09/30 06:01:32;;;;;;;14.88;5.70;;;15.50;99.90;;;;;;5009786;28;20041;-74
2023/09/30 06:03:58;;;;;;;11.85;6.43;;;15.50;99.90;;;;;;5010951;28;20134;-75
2023/09/30 06:06:26;;;;;;;16.27;6.78;;;15.70;99.90;;;;;;5012526;28;20440;-76
2023/09/30 06:08:51;;;;;;;13.60;5.97;;;15.60;99.90;;;;;;5044416;28;20065;-74
2023/09/30 06:11:19;;;;;;;12.02;6.13;;;15.60;99.90;;;;;;5016452;28;20498;-76
2023/09/30 06:13:46;;;;;;;13.23;6.43;;;15.60;99.90;;;;;;5008031;28;20072;-74
2023/09/30 06:16:12;;;;;;;18.73;7.22;;;15.60;99.90;;;;;;5007270;28;20080;-74
2023/09/30 06:18:38;;;;;;;15.77;6.80;;;15.60;99.90;;;;;;5008743;28;20076;-78
2023/09/30 06:21:04;;;;;;;10.65;6.32;;;15.60;99.90;;;;;;5011608;28;20076;-74
2023/09/30 06:23:30;;;;;;;13.70;6.50;;;15.60;99.90;;;;;;4979595;28;20034;-74
2023/09/30 06:25:57;;;;;;;16.45;6.75;;;15.70;99.90;;;;;;5040320;28;20125;-74
2023/09/30 06:28:25;;;;;;;13.43;6.38;;;15.80;99.90;;;;;;5007357;28;20047;-72
2023/09/30 06:30:55;;;;;;;16.52;7.38;;;15.70;99.90;;;;;;5010245;28;20121;-74
2023/09/30 06:33:21;;;;;;;12.68;6.63;;;15.80;99.90;;;;;;5022281;28;20124;-73
2023/09/30 06:35:53;;;;;;;13.35;6.10;;;15.90;99.90;;;;;;5001003;28;20076;-74
2023/09/30 06:38:19;;;;;;;9.93;6.13;;;15.90;99.90;;;;;;5005281;28;20037;-76
2023/09/30 06:40:47;;;;;;;11.63;6.50;;;16.00;99.90;;;;;;5008743;28;20057;-73
2023/09/30 06:43:16;;;;;;;13.55;7.05;;;16.10;99.90;;;;;;5023267;28;20045;-77
2023/09/30 06:45:43;;;;;;;12.77;6.43;;;16.00;99.90;;;;;;5021170;28;20076;-65
2023/09/30 06:48:15;;;;;;;13.65;7.32;;;16.10;99.90;;;;;;4995780;28;20054;-74
2023/09/30 06:50:45;;;;;;;15.27;7.07;;;16.20;99.90;;;;;;4984102;28;20065;-77
2023/09/30 06:53:11;;;;;;;12.38;7.18;;;16.30;99.90;;;;;;4993685;28;20494;-73
2023/09/30 06:55:39;;;;;;;12.60;6.80;;;16.50;99.90;;;;;;4993544;28;20050;-76
2023/09/30 06:58:07;;;;;;;13.07;6.75;;;16.50;99.90;;;;;;5015526;28;20073;-74
2023/09/30 07:00:35;;;;;;;13.38;6.80;;;16.50;99.90;;;;;;4993306;28;20044;-75
2023/09/30 07:03:01;;;;;;;13.82;5.95;;;16.60;99.90;;;;;;4995287;28;20049;-73
2023/09/30 07:05:28;;;;;;;13.20;6.05;;;16.70;99.90;;;;;;5011821;28;20054;-74
2023/09/30 07:07:54;;;;;;;13.40;5.95;;;16.80;99.90;;;;;;4992567;28;20037;-75
2023/09/30 07:10:19;;;;;;;12.15;5.25;;;16.80;99.90;;;;;;5006586;28;20364;-74
2023/09/30 07:12:45;;;;;;;11.23;5.70;;;16.90;99.90;;;;;;4994275;28;20045;-74
2023/09/30 07:15:11;;;;;;;8.73;5.18;;;17.00;99.90;;;;;;5004425;28;20061;-74
2023/09/30 07:17:37;;;;;;;10.75;6.10;;;17.00;99.90;;;;;;5039532;28;20124;-73
2023/09/30 07:20:04;;;;;;;10.65;5.93;;;17.10;99.90;;;;;;5029539;28;20132;-73
2023/09/30 07:22:31;;;;;;;9.75;5.35;;;17.20;99.90;;;;;;5015113;28;20041;-75
2023/09/30 07:24:57;;;;;;;12.68;5.38;;;17.30;99.90;;;;;;5009949;28;20485;-72
2023/09/30 07:27:24;;;;;;;8.52;6.05;;;17.30;99.90;;;;;;5018209;28;20084;-73
2023/09/30 07:29:50;;;;;;;11.70;6.10;;;17.30;99.90;;;;;;5003047;28;20045;-71
2023/09/30 07:32:16;;;;;;;9.10;5.28;;;17.40;99.90;;;;;;5011261;28;20647;-74
2023/09/30 07:34:42;;;;;;;13.35;6.60;;;17.40;99.90;;;;;;4996183;28;20033;-75
2023/09/30 07:37:09;;;;;;;9.77;5.35;;;17.40;99.90;;;;;;5012443;28;20041;-75
2023/09/30 07:39:36;;;;;;;9.50;5.40;;;17.60;99.90;;;;;;5010920;28;20037;-72
2023/09/30 07:42:02;;;;;;;10.10;5.40;;;17.60;99.90;;;;;;4994800;28;20041;-71
2023/09/30 07:44:27;;;;;;;9.80;5.50;;;17.70;99.90;;;;;;5011605;28;20056;-72
2023/09/30 07:46:53;;;;;;;13.15;6.03;;;17.70;99.90;;;;;;4992689;28;20034;-76
2023/09/30 07:49:19;;;;;;;14.38;6.15;;;17.80;99.90;;;;;;5006881;28;20095;-75
2023/09/30 07:51:46;;;;;;;12.82;6.30;;;17.90;99.90;;;;;;5009065;28;20037;-75
2023/09/30 07:54:12;;;;;;;10.38;5.75;;;17.90;99.90;;;;;;5011485;28;20068;-72
2023/09/30 07:56:38;;;;;;;9.13;5.43;;;17.90;99.90;;;;;;5029426;28;20045;-73
2023/09/30 07:59:05;;;;;;;8.88;5.10;;;17.90;99.90;;;;;;4994922;28;20034;-74
2023/09/30 08:01:31;;;;;;;11.25;5.47;;;17.90;99.90;;;;;;5002030;28;20037;-74
2023/09/30 08:03:57;;;;;;;9.48;5.40;;;18.20;99.90;;;;;;4994466;28;20494;-74
2023/09/30 08:06:23;;;;;;;8.30;5.35;;;18.20;99.90;;;;;;4991972;28;20052;-74
2023/09/30 08:08:49;;;;;;;12.82;5.70;;;18.20;99.90;;;;;;5004709;28;20037;-72
2023/09/30 08:11:17;;;;;;;12.48;6.05;;;18.30;99.90;;;;;;5010996;28;20050;-76
2023/09/30 08:13:43;;;;;;;10.52;5.40;;;18.40;99.90;;;;;;5011898;28;20041;-76
2023/09/30 08:16:08;;;;;;;9.50;5.10;;;18.40;99.90;;;;;;4995339;28;20124;-77
2023/09/30 08:18:34;;;;;;;8.43;5.28;;;18.50;99.90;;;;;;5011742;28;20126;-76
2023/09/30 08:21:00;;;;;;;9.38;5.22;;;18.60;99.90;;;;;;5008494;28;20052;-74
2023/09/30 08:23:25;;;;;;;10.93;5.25;;;18.70;99.90;;;;;;5009699;28;20120;-73
2023/09/30 08:26:02;;;;;;;10.23;4.97;;;18.80;99.90;;;;;;4995042;28;20052;-75
2023/09/30 08:28:31;;;;;;;9.65;4.45;;;19.00;99.90;;;;;;4995061;28;20046;-77
2023/09/30 08:31:02;;;;;;;8.05;4.78;;;19.10;99.90;;;;;;4984794;28;20105;-72
2023/09/30 08:33:30;;;;;;;7.25;4.10;;;19.10;99.90;;;;;;4994205;28;20041;-74
2023/09/30 08:35:58;;;;;;;13.25;4.93;;;19.10;99.90;;;;;;5011419;28;20167;-71
2023/09/30 08:38:24;;;;;;;9.27;4.55;;;19.30;99.90;;;;;;4999614;28;20053;-75
2023/09/30 08:40:52;;;;;;;9.38;4.38;;;19.20;99.90;;;;;;4992418;28;20469;-75
2023/09/30 08:43:23;;;;;;;8.55;4.43;;;19.40;99.90;;;;;;5037040;28;20044;-72
2023/09/30 08:45:53;;;;;;;9.02;4.13;;;19.60;99.90;;;;;;5030933;28;20053;-73
2023/09/30 08:48:22;;;;;;;7.22;3.63;;;19.40;99.90;;;;;;5004231;28;20050;-76
2023/09/30 08:50:50;;;;;;;10.23;4.25;;;19.60;99.90;;;;;;5009711;28;20025;-76
2023/09/30 08:53:16;;;;;;;7.85;3.83;;;19.60;99.90;;;;;;5008500;28;20098;-74
2023/09/30 08:55:45;;;;;;;11.88;4.43;;;19.70;99.90;;;;;;5019637;28;20064;-74
2023/09/30 08:58:12;;;;;;;10.85;3.80;;;19.70;99.90;;;;;;5037471;28;20046;-76
2023/09/30 09:00:42;;;;;;;9.20;3.85;;;19.90;99.90;;;;;;4994256;28;20041;-74
2023/09/30 09:03:08;;;;;;;8.88;3.85;;;20.10;99.90;;;;;;5006757;28;20049;-76
2023/09/30 09:05:34;;;;;;;10.43;3.92;;;20.10;99.90;;;;;;5036648;28;20057;-74
2023/09/30 09:08:00;;;;;;;6.25;3.00;;;20.10;99.90;;;;;;5004164;28;20042;-74
2023/09/30 09:10:26;;;;;;;8.52;3.53;;;20.20;99.90;;;;;;4987436;28;20057;-73
2023/09/30 09:12:59;;;;;;;10.32;3.35;;;20.30;99.90;;;;;;4955233;28;20114;-74
2023/09/30 09:15:28;;;;;;;11.88;3.97;;;20.30;99.90;;;;;;5009003;28;20113;-74
2023/09/30 09:17:55;;;;;;;13.57;4.20;;;20.50;99.90;;;;;;4974412;28;20133;-73
2023/09/30 09:20:22;;;;;;;10.95;4.28;;;20.50;99.90;;;;;;4965669;28;20041;-76
2023/09/30 09:22:52;;;;;;;10.48;4.10;;;20.60;99.90;;;;;;4991064;28;20050;-74
2023/09/30 09:25:18;;;;;;;10.75;4.15;;;20.70;99.90;;;;;;5001333;28;20104;-73
2023/09/30 09:27:44;;;;;;;9.30;4.03;;;20.80;99.90;;;;;;5004040;28;20050;-75
2023/09/30 09:30:21;;;;;;;13.82;4.05;;;20.80;99.90;;;;;;4956734;28;20563;-74
2023/09/30 09:33:06;;;;;;;12.65;4.03;;;20.80;99.90;;;;;;4989228;28;20120;-72
2023/09/30 09:35:33;;;;;;;;;;;21.00;99.90;;;;;;5019161;28;20044;-75
2023/09/30 09:38:03;;;;;;;10.27;3.15;;;21.10;99.90;;;;;;5004112;28;19924;-73
2023/09/30 09:40:37;;;;;;;8.75;3.55;;;21.20;99.90;;;;;;4974093;28;20096;-75
2023/09/30 09:43:05;;;;;;;11.57;3.75;;;21.20;99.90;;;;;;4972869;28;20046;-74
2023/09/30 09:45:34;;;;;;;9.43;3.17;;;21.20;99.90;;;;;;4989937;28;20123;-79
2023/09/30 09:48:01;;;;;;;9.52;3.47;;;21.30;99.90;;;;;;5006966;28;20104;-74
2023/09/30 09:50:26;;;;;;;11.35;2.67;;;21.40;99.90;;;;;;4991920;28;20100;-78
2023/09/30 09:52:55;;;;;;;8.13;2.78;;;21.60;99.90;;;;;;4989394;28;20486;-76
2023/09/30 09:55:23;;;;;;;11.10;2.70;;;21.80;99.90;;;;;;4973032;28;20517;-73
2023/09/30 09:57:49;;;;;;;12.18;2.80;;;21.90;99.90;;;;;;4989796;28;20851;-75
2023/09/30 10:00:18;;;;;;;9.55;2.85;;;22.00;99.90;;;;;;4974350;28;20038;-76
2023/09/30 10:02:48;;;;;;;6.68;3.05;;;22.10;99.90;;;;;;5024528;28;20042;-74
2023/09/30 10:05:15;;;;;;;13.70;2.85;;;22.10;99.90;;;;;;4993200;28;20347;-75
2023/09/30 10:07:53;;;;;;;7.68;2.90;;;22.10;99.90;;;;;;4976676;28;20092;-74
2023/09/30 10:10:22;;;;;;;9.00;2.63;;;21.90;99.90;;;;;;5004014;28;20061;-72
2023/09/30 10:12:48;;;;;;;8.18;2.15;;;21.90;99.90;;;;;;4997458;28;20044;-75
2023/09/30 10:15:25;;;;;;;6.88;2.38;;;21.90;99.90;;;;;;5013291;28;20033;-77
2023/09/30 10:18:11;;;;;;;5.60;2.53;;;21.70;99.90;;;;;;5010026;28;20049;-74
2023/09/30 10:20:44;;;;;;;6.40;2.15;;;21.90;99.90;;;;;;5012748;28;20050;-74
2023/09/30 10:23:27;;;;;;;9.98;2.42;;;22.10;99.90;;;;;;4997766;28;20192;-76
2023/09/30 10:26:13;;;;;;;8.50;2.33;;;22.10;99.90;;;;;;5013248;28;20057;-73
2023/09/30 10:28:41;;;;;;;7.20;2.03;;;22.00;99.90;;;;;;5043452;28;20432;-75
2023/09/30 10:31:17;;;;;;;7.82;2.22;;;22.10;99.90;;;;;;5013106;28;20037;-71
2023/09/30 10:34:02;;;;;;;5.00;1.83;;;22.10;99.90;;;;;;4997200;28;20033;-73
2023/09/30 10:36:30;;;;;;;5.68;1.65;;;22.10;99.90;;;;;;4997824;28;20034;-74
2023/09/30 10:38:56;;;;;;;11.32;2.22;;;22.10;99.90;;;;;;5012836;28;20472;-74
2023/09/30 10:41:48;;;;;;;9.20;2.65;;;22.00;99.90;;;;;;4996642;28;20057;-75
2023/09/30 10:44:26;;;;;;;6.97;2.03;;;21.80;99.90;;;;;;4998995;28;20393;-73
2023/09/30 10:47:00;;;;;;;5.95;2.10;;;22.00;99.90;;;;;;5011540;28;20037;-77
2023/09/30 10:49:25;;;;;;;7.82;2.78;;;22.10;99.90;;;;;;4996473;28;20045;-76
2023/09/30 10:51:56;;;;;;;7.18;2.05;;;22.10;99.90;;;;;;5012602;28;20489;-77
2023/09/30 10:54:26;;;;;;;6.47;1.90;;;22.10;99.90;;;;;;5046147;28;20042;-76
2023/09/30 10:56:52;;;;;;;7.63;2.33;;;22.00;99.90;;;;;;5014815;28;20042;-78
2023/09/30 10:59:19;;;;;;;6.20;1.90;;;22.10;99.90;;;;;;4994805;28;20670;-78
2023/09/30 11:01:46;;;;;;;6.60;2.22;;;22.10;99.90;;;;;;5012450;28;20895;-73
2023/09/30 11:04:11;;;;;;;5.38;1.80;;;22.10;99.90;;;;;;5012547;28;20084;-78
2023/09/30 11:06:41;;;;;;;4.75;1.50;;;22.00;99.90;;;;;;4995987;28;20072;-74
2023/09/30 11:09:12;;;;;;;9.73;2.65;;;22.10;99.90;;;;;;5008265;28;20442;-73
2023/09/30 11:11:48;;;;;;;8.20;2.00;;;22.20;99.90;;;;;;5007548;28;20495;-75
2023/09/30 11:14:19;;;;;;;6.35;1.92;;;22.20;99.90;;;;;;4994458;28;20033;-74
2023/09/30 11:16:45;;;;;;;9.23;2.05;;;22.30;99.90;;;;;;5011939;28;20401;-74
2023/09/30 11:19:15;;;;;;;7.53;2.53;;;22.30;99.90;;;;;;5012257;28;20405;-75
2023/09/30 11:21:41;;;;;;;4.68;1.85;;;22.40;99.90;;;;;;5003335;28;20046;-75
2023/09/30 11:24:07;;;;;;;7.70;2.20;;;22.60;99.90;;;;;;5019050;28;20042;-76
2023/09/30 11:26:34;;;;;;;6.20;1.80;;;22.80;99.90;;;;;;4994466;28;20025;-71
2023/09/30 11:29:11;;;;;;;5.55;1.92;;;22.70;99.90;;;;;;5010699;28;20120;-74
2023/09/30 11:31:38;;;;;;;6.75;1.90;;;22.80;99.90;;;;;;5008571;28;20152;-72
2023/09/30 11:34:04;;;;;;;7.70;1.83;;;22.60;99.90;;;;;;5010518;28;20041;-76
2023/09/30 11:36:33;;;;;;;6.68;2.20;;;22.60;99.90;;;;;;4994485;28;20030;-75
2023/09/30 11:39:02;;;;;;;3.92;1.38;;;22.60;99.90;;;;;;5005150;28;20068;-76
2023/09/30 11:41:43;;;;;;;4.03;1.65;;;22.70;99.90;;;;;;5015565;28;20042;-77
2023/09/30 11:44:12;;;;;;;6.32;1.98;;;22.70;99.90;;;;;;4983817;28;20204;-74
2023/09/30 11:46:59;;;;;;;5.22;1.85;;;22.60;99.90;;;;;;4992282;28;20401;-77
2023/09/30 11:49:38;;;;;;;5.82;2.10;;;22.50;99.90;;;;;;4991969;28;20085;-77
2023/09/30 11:52:05;;;;;;;8.68;2.22;;;22.40;99.90;;;;;;5006370;28;20038;-78
2023/09/30 11:54:40;;;;;;;7.95;1.83;;;22.30;99.90;;;;;;5003340;28;20365;-74
2023/09/30 11:57:09;;;;;;;5.40;1.75;;;22.10;99.90;;;;;;5030923;28;20065;-74
2023/09/30 11:59:36;;;;;;;4.45;1.48;;;21.80;99.90;;;;;;5023438;28;20504;-74
2023/09/30 12:02:03;;;;;;;7.03;1.92;;;21.60;99.90;;;;;;4994765;28;20175;-75
2023/09/30 12:04:29;;;;;;;4.55;1.40;;;21.40;99.90;;;;;;4993441;28;20406;-75
2023/09/30 12:06:57;;;;;;;6.40;1.60;;;21.30;99.90;;;;;;5005839;28;20432;-78
2023/09/30 12:09:25;;;;;;;6.70;1.92;;;21.30;99.90;;;;;;4975806;28;20061;-77
2023/09/30 12:11:51;;;;;;;5.47;1.90;;;21.30;99.90;;;;;;4994866;28;20064;-75
2023/09/30 12:14:17;;;;;;;4.53;1.60;;;21.30;99.90;;;;;;5010856;28;20461;-78
2023/09/30 12:16:45;;;;;;;5.53;1.75;;;21.20;99.90;;;;;;5011269;28;20127;-73
2023/09/30 12:19:13;;;;;;;5.75;1.98;;;21.10;99.90;;;;;;5006519;28;20111;-75
2023/09/30 12:21:40;;;;;;;6.47;1.92;;;21.10;99.90;;;;;;5025695;28;20045;-78
2023/09/30 12:24:07;;;;;;;3.50;1.60;;;21.00;99.90;;;;;;5028843;28;20077;-74
2023/09/30 12:26:33;;;;;;;5.35;1.80;;;21.00;99.90;;;;;;5001777;28;20139;-74
2023/09/30 12:28:59;;;;;;;5.50;1.77;;;21.10;99.90;;;;;;4992713;28;20516;-75
2023/09/30 12:31:25;;;;;;;6.28;1.80;;;21.10;99.90;;;;;;4989770;28;20039;-79
2023/09/30 12:33:51;;;;;;;7.45;1.90;;;21.20;99.90;;;;;;5010576;28;20092;-79
2023/09/30 12:36:21;;;;;;;5.63;1.55;;;21.20;99.90;;;;;;4994586;28;20053;-78
2023/09/30 12:38:47;;;;;;;7.95;1.90;;;21.30;99.90;;;;;;4994157;28;20052;-76
2023/09/30 12:41:15;;;;;;;8.68;2.17;;;21.50;99.90;;;;;;4994320;28;20045;-77
2023/09/30 12:43:41;;;;;;;6.05;1.85;;;21.70;99.90;;;;;;4994502;28;20052;-78
2023/09/30 12:46:13;;;;;;;8.02;1.45;;;21.80;99.90;;;;;;5010546;28;20103;-77